Pryor, Colorado
Current Conditions -  °F | °C
As of 3:52 AM on Friday 21 Nov 2014 (Local Time) from KVTP Reporting Station
Clear Clear  
Wind Chill: 12°   Ceiling: Unl
Heat Index: 23°   Visibility: 10mi
Dew Point: 12°   Wind: 12mph
Humidity: 63%   Direction: 190°S
Pressure: 30.03"   Gusts: 25mph
Location:  37.6936°N, 104.772°W
Report Text: KVTP 211052Z AUTO 19010G22KT 150V220 10SM CLR M05/M11 A3003 RMK AO2
Loading
Personal Weather Stations






























Interactive Weather Map New forecast layout! Learn more

10-Day Weather Forecast

Advertisements
Track Severe Weather on mobile